sensor_id;sensor_type;location;lat;lon;timestamp;noise_LAeq;noise_LA_min;noise_LA_max;noise_LA01;noise_LA95
58251;Laerm;51449;51.676;5.812;2023-05-10T00:01:27;37.75;29.94;57.73;;
58251;Laerm;51449;51.676;5.812;2023-05-10T00:03:48;53.95;30.73;70.69;;
58251;Laerm;51449;51.676;5.812;2023-05-10T00:06:11;58.96;31.31;75.94;;
58251;Laerm;51449;51.676;5.812;2023-05-10T00:08:33;62.44;30.71;79.15;;
58251;Laerm;51449;51.676;5.812;2023-05-10T00:10:55;35.04;30.20;51.78;;
58251;Laerm;51449;51.676;5.812;2023-05-10T00:13:16;39.08;30.69;52.32;;
58251;Laerm;51449;51.676;5.812;2023-05-10T00:15:38;52.67;30.51;69.36;;
58251;Laerm;51449;51.676;5.812;2023-05-10T00:18:00;60.99;29.57;77.99;;
58251;Laerm;51449;51.676;5.812;2023-05-10T00:20:22;34.00;28.86;51.09;;
58251;Laerm;51449;51.676;5.812;2023-05-10T00:22:44;34.46;28.74;55.67;;
58251;Laerm;51449;51.676;5.812;2023-05-10T00:25:06;36.40;30.50;52.07;;
58251;Laerm;51449;51.676;5.812;2023-05-10T00:27:28;61.53;31.04;74.48;;
58251;Laerm;51449;51.676;5.812;2023-05-10T00:29:50;50.50;30.39;65.96;;
58251;Laerm;51449;51.676;5.812;2023-05-10T00:32:12;46.98;28.93;63.70;;
58251;Laerm;51449;51.676;5.812;2023-05-10T00:34:35;51.17;28.37;68.12;;
58251;Laerm;51449;51.676;5.812;2023-05-10T00:36:57;44.39;29.36;65.18;;
58251;Laerm;51449;51.676;5.812;2023-05-10T00:39:19;59.66;29.67;73.45;;
58251;Laerm;51449;51.676;5.812;2023-05-10T00:41:41;62.21;29.95;77.72;;
58251;Laerm;51449;51.676;5.812;2023-05-10T00:44:03;59.58;29.69;74.93;;
58251;Laerm;51449;51.676;5.812;2023-05-10T00:46:25;62.88;28.56;77.71;;
58251;Laerm;51449;51.676;5.812;2023-05-10T00:48:48;36.02;28.26;55.77;;
58251;Laerm;51449;51.676;5.812;2023-05-10T00:51:13;58.13;28.12;74.89;;
58251;Laerm;51449;51.676;5.812;2023-05-10T00:53:35;61.44;27.78;79.79;;
58251;Laerm;51449;51.676;5.812;2023-05-10T00:55:57;34.30;28.13;53.29;;
58251;Laerm;51449;51.676;5.812;2023-05-10T00:58:19;58.81;29.37;74.20;;
58251;Laerm;51449;51.676;5.812;2023-05-10T01:00:43;36.78;28.20;56.52;;
58251;Laerm;51449;51.676;5.812;2023-05-10T01:03:06;54.06;27.49;70.59;;
58251;Laerm;51449;51.676;5.812;2023-05-10T01:05:28;53.91;30.26;68.24;;
58251;Laerm;51449;51.676;5.812;2023-05-10T01:07:51;62.55;29.58;76.55;;
58251;Laerm;51449;51.676;5.812;2023-05-10T01:10:13;56.24;29.54;71.92;;
58251;Laerm;51449;51.676;5.812;2023-05-10T01:12:39;60.94;32.25;76.50;;
58251;Laerm;51449;51.676;5.812;2023-05-10T01:15:03;53.85;31.50;69.65;;
58251;Laerm;51449;51.676;5.812;2023-05-10T01:17:26;60.31;30.46;75.46;;
58251;Laerm;51449;51.676;5.812;2023-05-10T01:19:50;54.18;30.30;69.44;;
58251;Laerm;51449;51.676;5.812;2023-05-10T01:25:44;50.64;28.62;68.08;;
58251;Laerm;51449;51.676;5.812;2023-05-10T01:34:25;59.73;31.64;74.69;;
58251;Laerm;51449;51.676;5.812;2023-05-10T01:37:01;35.81;29.28;53.34;;
58251;Laerm;51449;51.676;5.812;2023-05-10T01:39:48;56.25;28.35;72.89;;
58251;Laerm;51449;51.676;5.812;2023-05-10T01:42:18;50.59;27.99;67.79;;
58251;Laerm;51449;51.676;5.812;2023-05-10T01:45:04;57.77;28.55;75.03;;
58251;Laerm;51449;51.676;5.812;2023-05-10T01:47:40;59.81;30.17;75.23;;
58251;Laerm;51449;51.676;5.812;2023-05-10T01:50:10;54.53;28.72;69.18;;
58251;Laerm;51449;51.676;5.812;2023-05-10T01:52:42;34.68;28.87;53.60;;
58251;Laerm;51449;51.676;5.812;2023-05-10T01:55:11;57.93;28.73;71.01;;
58251;Laerm;51449;51.676;5.812;2023-05-10T01:57:37;57.27;29.20;72.12;;
58251;Laerm;51449;51.676;5.812;2023-05-10T02:00:04;59.70;28.85;75.68;;
58251;Laerm;51449;51.676;5.812;2023-05-10T02:02:40;53.06;28.12;69.09;;
58251;Laerm;51449;51.676;5.812;2023-05-10T02:05:06;56.04;28.27;69.87;;
58251;Laerm;51449;51.676;5.812;2023-05-10T02:07:29;58.97;27.98;75.05;;
58251;Laerm;51449;51.676;5.812;2023-05-10T02:09:53;38.80;27.44;56.25;;
58251;Laerm;51449;51.676;5.812;2023-05-10T02:12:17;51.75;28.51;68.24;;
58251;Laerm;51449;51.676;5.812;2023-05-10T02:14:42;53.27;30.08;67.57;;
58251;Laerm;51449;51.676;5.812;2023-05-10T02:17:07;57.99;31.35;72.91;;
58251;Laerm;51449;51.676;5.812;2023-05-10T02:19:32;56.65;28.02;70.86;;
58251;Laerm;51449;51.676;5.812;2023-05-10T02:21:56;48.77;28.43;65.28;;
58251;Laerm;51449;51.676;5.812;2023-05-10T02:24:20;61.01;33.07;74.42;;
58251;Laerm;51449;51.676;5.812;2023-05-10T02:26:45;60.57;31.40;72.85;;
58251;Laerm;51449;51.676;5.812;2023-05-10T02:29:09;49.15;29.04;65.59;;
58251;Laerm;51449;51.676;5.812;2023-05-10T02:31:35;58.35;30.77;71.36;;
58251;Laerm;51449;51.676;5.812;2023-05-10T02:34:00;63.01;35.68;76.54;;
58251;Laerm;51449;51.676;5.812;2023-05-10T02:36:23;61.38;32.83;73.87;;
58251;Laerm;51449;51.676;5.812;2023-05-10T02:38:48;61.79;31.85;72.88;;
58251;Laerm;51449;51.676;5.812;2023-05-10T02:41:12;58.49;34.49;70.84;;
58251;Laerm;51449;51.676;5.812;2023-05-10T02:43:37;62.14;32.57;80.27;;
58251;Laerm;51449;51.676;5.812;2023-05-10T02:46:02;54.86;32.43;71.20;;
58251;Laerm;51449;51.676;5.812;2023-05-10T02:48:24;56.67;33.93;74.53;;
58251;Laerm;51449;51.676;5.812;2023-05-10T02:50:47;59.21;31.09;72.67;;
58251;Laerm;51449;51.676;5.812;2023-05-10T02:53:23;59.42;33.14;74.97;;
58251;Laerm;51449;51.676;5.812;2023-05-10T02:55:52;61.94;33.63;75.16;;
58251;Laerm;51449;51.676;5.812;2023-05-10T02:58:14;58.74;31.59;72.20;;
58251;Laerm;51449;51.676;5.812;2023-05-10T03:00:36;53.43;30.18;74.34;;
58251;Laerm;51449;51.676;5.812;2023-05-10T03:02:58;64.51;37.14;78.01;;
58251;Laerm;51449;51.676;5.812;2023-05-10T03:05:22;64.34;44.13;75.70;;
58251;Laerm;51449;51.676;5.812;2023-05-10T03:07:45;66.59;44.82;77.27;;
58251;Laerm;51449;51.676;5.812;2023-05-10T03:10:08;65.65;45.32;83.30;;
58251;Laerm;51449;51.676;5.812;2023-05-10T03:12:59;64.29;43.83;82.22;;
58251;Laerm;51449;51.676;5.812;2023-05-10T03:15:39;66.85;49.00;79.89;;
58251;Laerm;51449;51.676;5.812;2023-05-10T03:18:16;64.41;45.21;80.55;;
58251;Laerm;51449;51.676;5.812;2023-05-10T03:20:48;64.90;46.50;77.21;;
58251;Laerm;51449;51.676;5.812;2023-05-10T03:25:42;70.77;46.43;91.89;;
58251;Laerm;51449;51.676;5.812;2023-05-10T03:28:06;66.36;47.77;76.75;;
58251;Laerm;51449;51.676;5.812;2023-05-10T03:30:29;65.13;45.28;75.69;;
58251;Laerm;51449;51.676;5.812;2023-05-10T03:32:51;64.17;46.93;73.23;;
58251;Laerm;51449;51.676;5.812;2023-05-10T03:35:13;65.94;46.21;75.60;;
58251;Laerm;51449;51.676;5.812;2023-05-10T03:37:36;63.45;45.87;73.22;;
58251;Laerm;51449;51.676;5.812;2023-05-10T03:39:57;64.17;45.91;72.89;;
58251;Laerm;51449;51.676;5.812;2023-05-10T03:42:19;62.26;45.96;73.94;;
58251;Laerm;51449;51.676;5.812;2023-05-10T03:44:41;66.33;47.01;77.52;;
58251;Laerm;51449;51.676;5.812;2023-05-10T03:47:03;69.20;46.81;84.50;;
58251;Laerm;51449;51.676;5.812;2023-05-10T03:49:25;66.47;42.39;79.22;;
58251;Laerm;51449;51.676;5.812;2023-05-10T03:51:47;67.74;48.74;77.57;;
58251;Laerm;51449;51.676;5.812;2023-05-10T03:54:11;66.03;45.09;76.84;;
58251;Laerm;51449;51.676;5.812;2023-05-10T03:56:33;65.95;44.05;75.91;;
58251;Laerm;51449;51.676;5.812;2023-05-10T03:58:54;66.93;45.27;77.62;;
58251;Laerm;51449;51.676;5.812;2023-05-10T04:01:17;64.52;46.32;76.25;;
58251;Laerm;51449;51.676;5.812;2023-05-10T04:03:38;65.40;46.04;78.54;;
58251;Laerm;51449;51.676;5.812;2023-05-10T04:06:01;62.31;41.86;72.39;;
58251;Laerm;51449;51.676;5.812;2023-05-10T04:08:23;65.55;47.30;74.26;;
58251;Laerm;51449;51.676;5.812;2023-05-10T04:10:45;63.89;39.92;75.79;;
58251;Laerm;51449;51.676;5.812;2023-05-10T04:13:07;65.46;44.89;75.89;;
58251;Laerm;51449;51.676;5.812;2023-05-10T04:15:28;64.36;42.17;78.49;;
58251;Laerm;51449;51.676;5.812;2023-05-10T04:17:50;66.84;42.67;75.30;;
58251;Laerm;51449;51.676;5.812;2023-05-10T04:20:13;64.91;40.89;75.00;;
58251;Laerm;51449;51.676;5.812;2023-05-10T04:22:35;66.00;42.51;78.41;;
58251;Laerm;51449;51.676;5.812;2023-05-10T04:24:57;64.94;44.08;75.12;;
58251;Laerm;51449;51.676;5.812;2023-05-10T04:27:18;65.69;45.53;74.90;;
58251;Laerm;51449;51.676;5.812;2023-05-10T04:29:40;66.70;46.82;78.68;;
58251;Laerm;51449;51.676;5.812;2023-05-10T04:32:02;67.50;49.61;76.93;;
58251;Laerm;51449;51.676;5.812;2023-05-10T04:34:25;66.04;44.79;74.75;;
58251;Laerm;51449;51.676;5.812;2023-05-10T04:36:47;66.05;50.10;74.29;;
58251;Laerm;51449;51.676;5.812;2023-05-10T04:39:08;66.41;42.15;76.32;;
58251;Laerm;51449;51.676;5.812;2023-05-10T04:41:31;66.37;48.62;78.88;;
58251;Laerm;51449;51.676;5.812;2023-05-10T04:43:53;70.10;50.47;80.24;;
58251;Laerm;51449;51.676;5.812;2023-05-10T04:46:14;66.97;44.33;76.13;;
58251;Laerm;51449;51.676;5.812;2023-05-10T04:48:36;65.65;43.30;74.68;;
58251;Laerm;51449;51.676;5.812;2023-05-10T04:50:58;65.37;47.99;72.38;;
58251;Laerm;51449;51.676;5.812;2023-05-10T04:53:20;67.51;49.81;76.68;;
58251;Laerm;51449;51.676;5.812;2023-05-10T04:55:42;64.86;42.19;75.53;;
58251;Laerm;51449;51.676;5.812;2023-05-10T04:58:03;69.66;49.06;81.58;;
58251;Laerm;51449;51.676;5.812;2023-05-10T05:00:26;64.65;46.91;71.73;;
58251;Laerm;51449;51.676;5.812;2023-05-10T05:02:47;67.04;48.68;75.80;;
58251;Laerm;51449;51.676;5.812;2023-05-10T05:05:09;66.45;52.03;82.41;;
58251;Laerm;51449;51.676;5.812;2023-05-10T05:07:31;67.47;49.49;75.59;;
58251;Laerm;51449;51.676;5.812;2023-05-10T05:09:53;68.60;49.42;77.16;;
58251;Laerm;51449;51.676;5.812;2023-05-10T05:12:15;67.25;48.36;79.63;;
58251;Laerm;51449;51.676;5.812;2023-05-10T05:14:36;66.49;42.45;74.26;;
58251;Laerm;51449;51.676;5.812;2023-05-10T05:16:58;70.67;45.84;89.19;;
58251;Laerm;51449;51.676;5.812;2023-05-10T05:19:20;67.22;53.41;83.26;;
58251;Laerm;51449;51.676;5.812;2023-05-10T05:21:42;67.31;47.57;80.84;;
58251;Laerm;51449;51.676;5.812;2023-05-10T05:24:04;66.71;44.29;73.76;;
58251;Laerm;51449;51.676;5.812;2023-05-10T05:26:26;68.07;45.29;77.83;;
58251;Laerm;51449;51.676;5.812;2023-05-10T05:28:48;67.24;52.61;81.06;;
58251;Laerm;51449;51.676;5.812;2023-05-10T05:31:11;67.25;49.74;80.19;;
58251;Laerm;51449;51.676;5.812;2023-05-10T05:33:34;68.13;56.50;81.63;;
58251;Laerm;51449;51.676;5.812;2023-05-10T05:35:55;66.10;52.69;74.32;;
58251;Laerm;51449;51.676;5.812;2023-05-10T05:38:17;66.78;44.83;75.69;;
58251;Laerm;51449;51.676;5.812;2023-05-10T05:40:39;72.23;53.10;88.07;;
58251;Laerm;51449;51.676;5.812;2023-05-10T05:43:01;70.93;52.08;82.56;;
58251;Laerm;51449;51.676;5.812;2023-05-10T05:45:22;66.72;47.80;78.22;;
58251;Laerm;51449;51.676;5.812;2023-05-10T05:47:44;66.79;46.25;74.40;;
58251;Laerm;51449;51.676;5.812;2023-05-10T05:50:06;68.50;55.23;77.38;;
58251;Laerm;51449;51.676;5.812;2023-05-10T05:52:28;69.26;49.38;92.51;;
58251;Laerm;51449;51.676;5.812;2023-05-10T05:54:50;69.24;51.45;78.34;;
58251;Laerm;51449;51.676;5.812;2023-05-10T05:57:12;64.52;46.04;78.05;;
58251;Laerm;51449;51.676;5.812;2023-05-10T05:59:33;68.07;48.11;78.94;;
58251;Laerm;51449;51.676;5.812;2023-05-10T06:01:55;65.95;46.75;76.03;;
58251;Laerm;51449;51.676;5.812;2023-05-10T06:04:17;66.57;45.55;74.79;;
58251;Laerm;51449;51.676;5.812;2023-05-10T06:06:39;67.16;46.42;76.96;;
58251;Laerm;51449;51.676;5.812;2023-05-10T06:09:00;66.14;47.36;74.54;;
58251;Laerm;51449;51.676;5.812;2023-05-10T06:11:22;69.12;48.13;85.67;;
58251;Laerm;51449;51.676;5.812;2023-05-10T06:13:44;65.11;44.46;73.15;;
58251;Laerm;51449;51.676;5.812;2023-05-10T06:16:06;67.38;45.44;79.34;;
58251;Laerm;51449;51.676;5.812;2023-05-10T06:18:28;66.96;42.02;80.56;;
58251;Laerm;51449;51.676;5.812;2023-05-10T06:20:50;66.64;47.44;75.42;;
58251;Laerm;51449;51.676;5.812;2023-05-10T06:23:11;66.24;50.90;74.40;;
58251;Laerm;51449;51.676;5.812;2023-05-10T06:25:33;67.22;41.11;82.95;;
58251;Laerm;51449;51.676;5.812;2023-05-10T06:27:55;69.47;47.37;83.50;;
58251;Laerm;51449;51.676;5.812;2023-05-10T06:30:19;64.49;46.33;74.04;;
58251;Laerm;51449;51.676;5.812;2023-05-10T06:32:41;65.27;48.43;73.42;;
58251;Laerm;51449;51.676;5.812;2023-05-10T06:35:06;64.96;49.99;75.56;;
58251;Laerm;51449;51.676;5.812;2023-05-10T06:37:28;66.13;52.48;73.21;;
58251;Laerm;51449;51.676;5.812;2023-05-10T06:39:49;67.42;42.42;84.33;;
58251;Laerm;51449;51.676;5.812;2023-05-10T06:42:11;65.67;42.36;74.54;;
58251;Laerm;51449;51.676;5.812;2023-05-10T06:44:33;66.49;50.99;77.03;;
58251;Laerm;51449;51.676;5.812;2023-05-10T06:46:55;66.61;53.78;86.01;;
58251;Laerm;51449;51.676;5.812;2023-05-10T06:49:18;84.33;50.49;102.51;;
58251;Laerm;51449;51.676;5.812;2023-05-10T06:51:40;64.80;41.44;77.56;;
58251;Laerm;51449;51.676;5.812;2023-05-10T06:54:02;67.58;42.07;77.33;;
58251;Laerm;51449;51.676;5.812;2023-05-10T06:56:24;66.86;41.56;79.42;;
58251;Laerm;51449;51.676;5.812;2023-05-10T06:58:46;68.42;48.43;83.30;;
58251;Laerm;51449;51.676;5.812;2023-05-10T07:01:08;80.20;39.62;99.95;;
58251;Laerm;51449;51.676;5.812;2023-05-10T07:03:31;65.02;39.93;76.36;;
58251;Laerm;51449;51.676;5.812;2023-05-10T07:05:53;64.17;42.32;73.59;;
58251;Laerm;51449;51.676;5.812;2023-05-10T07:08:15;64.64;41.25;78.58;;
58251;Laerm;51449;51.676;5.812;2023-05-10T07:10:36;64.87;44.48;74.24;;
58251;Laerm;51449;51.676;5.812;2023-05-10T07:12:58;68.28;41.24;81.96;;
58251;Laerm;51449;51.676;5.812;2023-05-10T07:15:20;72.20;50.71;81.97;;
58251;Laerm;51449;51.676;5.812;2023-05-10T07:17:42;65.50;45.12;74.94;;
58251;Laerm;51449;51.676;5.812;2023-05-10T07:20:07;74.14;54.92;83.57;;
58251;Laerm;51449;51.676;5.812;2023-05-10T07:22:29;62.30;43.00;78.77;;
58251;Laerm;51449;51.676;5.812;2023-05-10T07:24:51;68.95;41.27;83.27;;
58251;Laerm;51449;51.676;5.812;2023-05-10T07:27:13;67.00;40.77;81.68;;
58251;Laerm;51449;51.676;5.812;2023-05-10T07:29:35;72.67;55.26;83.08;;
58251;Laerm;51449;51.676;5.812;2023-05-10T07:31:57;63.93;42.30;82.83;;
58251;Laerm;51449;51.676;5.812;2023-05-10T07:34:19;64.54;40.44;76.01;;
58251;Laerm;51449;51.676;5.812;2023-05-10T07:36:41;64.57;39.87;82.39;;
58251;Laerm;51449;51.676;5.812;2023-05-10T07:39:03;68.30;40.49;81.10;;
58251;Laerm;51449;51.676;5.812;2023-05-10T07:41:25;69.52;39.91;80.67;;
58251;Laerm;51449;51.676;5.812;2023-05-10T07:43:47;67.10;41.45;79.56;;
58251;Laerm;51449;51.676;5.812;2023-05-10T07:46:09;65.31;42.56;76.25;;
58251;Laerm;51449;51.676;5.812;2023-05-10T07:48:31;66.77;46.31;77.14;;
58251;Laerm;51449;51.676;5.812;2023-05-10T07:50:53;65.83;41.97;76.60;;
58251;Laerm;51449;51.676;5.812;2023-05-10T07:53:15;69.96;52.12;83.81;;
58251;Laerm;51449;51.676;5.812;2023-05-10T07:55:37;66.00;51.42;76.45;;
58251;Laerm;51449;51.676;5.812;2023-05-10T07:57:59;63.87;40.88;90.75;;
58251;Laerm;51449;51.676;5.812;2023-05-10T08:00:22;61.99;43.93;73.75;;
58251;Laerm;51449;51.676;5.812;2023-05-10T08:02:44;65.88;56.13;74.84;;
58251;Laerm;51449;51.676;5.812;2023-05-10T08:05:06;68.76;43.37;79.60;;
58251;Laerm;51449;51.676;5.812;2023-05-10T08:07:29;68.16;45.98;78.68;;
58251;Laerm;51449;51.676;5.812;2023-05-10T08:09:51;67.01;47.28;91.27;;
58251;Laerm;51449;51.676;5.812;2023-05-10T08:12:13;61.04;44.05;74.14;;
58251;Laerm;51449;51.676;5.812;2023-05-10T08:14:35;64.97;47.54;74.32;;
58251;Laerm;51449;51.676;5.812;2023-05-10T08:16:58;64.55;43.08;75.50;;
58251;Laerm;51449;51.676;5.812;2023-05-10T08:19:19;65.72;42.08;76.80;;
58251;Laerm;51449;51.676;5.812;2023-05-10T08:21:43;65.44;43.49;79.61;;
58251;Laerm;51449;51.676;5.812;2023-05-10T08:24:05;64.68;40.43;75.36;;
58251;Laerm;51449;51.676;5.812;2023-05-10T08:26:27;65.25;41.71;74.74;;
58251;Laerm;51449;51.676;5.812;2023-05-10T08:28:49;66.68;50.15;81.45;;
58251;Laerm;51449;51.676;5.812;2023-05-10T08:31:11;70.46;42.97;85.63;;
58251;Laerm;51449;51.676;5.812;2023-05-10T08:33:33;65.79;41.75;77.82;;
58251;Laerm;51449;51.676;5.812;2023-05-10T08:35:55;64.43;43.40;77.00;;
58251;Laerm;51449;51.676;5.812;2023-05-10T08:38:18;67.55;46.97;83.41;;
58251;Laerm;51449;51.676;5.812;2023-05-10T08:40:42;69.17;49.32;86.64;;
58251;Laerm;51449;51.676;5.812;2023-05-10T08:43:08;63.24;42.96;73.09;;
58251;Laerm;51449;51.676;5.812;2023-05-10T08:45:33;66.27;43.61;82.72;;
58251;Laerm;51449;51.676;5.812;2023-05-10T08:48:01;69.83;42.87;85.52;;
58251;Laerm;51449;51.676;5.812;2023-05-10T08:50:25;64.91;40.63;76.58;;
58251;Laerm;51449;51.676;5.812;2023-05-10T08:52:50;65.47;43.13;76.57;;
58251;Laerm;51449;51.676;5.812;2023-05-10T08:55:16;64.66;43.02;77.77;;
58251;Laerm;51449;51.676;5.812;2023-05-10T08:57:38;63.75;42.72;76.60;;
58251;Laerm;51449;51.676;5.812;2023-05-10T09:00:01;64.15;43.46;75.55;;
58251;Laerm;51449;51.676;5.812;2023-05-10T09:02:24;67.62;46.72;83.34;;
58251;Laerm;51449;51.676;5.812;2023-05-10T09:04:47;63.68;41.36;74.37;;
58251;Laerm;51449;51.676;5.812;2023-05-10T09:07:11;68.47;44.56;86.27;;
58251;Laerm;51449;51.676;5.812;2023-05-10T09:09:34;72.27;44.00;86.30;;
58251;Laerm;51449;51.676;5.812;2023-05-10T09:11:57;71.73;40.04;87.24;;
58251;Laerm;51449;51.676;5.812;2023-05-10T09:14:20;64.89;41.75;76.52;;
58251;Laerm;51449;51.676;5.812;2023-05-10T09:16:43;64.09;40.47;76.00;;
58251;Laerm;51449;51.676;5.812;2023-05-10T09:19:05;65.02;39.06;76.78;;
58251;Laerm;51449;51.676;5.812;2023-05-10T09:21:30;70.49;39.58;86.68;;
58251;Laerm;51449;51.676;5.812;2023-05-10T09:23:53;69.60;48.35;86.78;;
58251;Laerm;51449;51.676;5.812;2023-05-10T09:26:22;63.60;43.84;73.08;;
58251;Laerm;51449;51.676;5.812;2023-05-10T09:28:51;65.33;44.40;74.90;;
58251;Laerm;51449;51.676;5.812;2023-05-10T09:31:14;62.22;46.31;71.90;;
58251;Laerm;51449;51.676;5.812;2023-05-10T09:33:47;60.69;43.27;71.14;;
58251;Laerm;51449;51.676;5.812;2023-05-10T09:36:09;65.00;46.13;73.33;;
58251;Laerm;51449;51.676;5.812;2023-05-10T09:38:49;63.87;40.37;73.92;;
58251;Laerm;51449;51.676;5.812;2023-05-10T09:41:27;65.12;43.01;77.51;;
58251;Laerm;51449;51.676;5.812;2023-05-10T09:43:55;64.30;40.74;74.94;;
58251;Laerm;51449;51.676;5.812;2023-05-10T09:46:17;61.72;42.21;74.26;;
58251;Laerm;51449;51.676;5.812;2023-05-10T09:48:46;62.39;42.31;71.81;;
58251;Laerm;51449;51.676;5.812;2023-05-10T09:51:09;65.06;45.35;76.42;;
58251;Laerm;51449;51.676;5.812;2023-05-10T09:53:31;63.89;43.83;74.89;;
58251;Laerm;51449;51.676;5.812;2023-05-10T09:55:53;65.48;40.88;75.62;;
58251;Laerm;51449;51.676;5.812;2023-05-10T09:58:15;61.28;41.20;78.69;;
58251;Laerm;51449;51.676;5.812;2023-05-10T10:00:45;61.90;41.06;76.03;;
58251;Laerm;51449;51.676;5.812;2023-05-10T10:03:19;62.33;41.31;73.76;;
58251;Laerm;51449;51.676;5.812;2023-05-10T10:05:43;69.27;44.80;83.53;;
58251;Laerm;51449;51.676;5.812;2023-05-10T10:08:06;61.61;43.34;72.54;;
58251;Laerm;51449;51.676;5.812;2023-05-10T10:10:29;64.66;45.50;73.71;;
58251;Laerm;51449;51.676;5.812;2023-05-10T10:12:51;63.93;43.77;75.01;;
58251;Laerm;51449;51.676;5.812;2023-05-10T10:15:14;63.94;41.79;73.66;;
58251;Laerm;51449;51.676;5.812;2023-05-10T10:17:37;64.75;44.65;75.92;;
58251;Laerm;51449;51.676;5.812;2023-05-10T10:20:03;65.79;44.66;77.38;;
58251;Laerm;51449;51.676;5.812;2023-05-10T10:22:26;64.14;40.78;73.12;;
58251;Laerm;51449;51.676;5.812;2023-05-10T10:24:48;63.05;43.12;74.78;;
58251;Laerm;51449;51.676;5.812;2023-05-10T10:27:47;64.44;49.40;75.89;;
58251;Laerm;51449;51.676;5.812;2023-05-10T10:30:47;69.29;48.34;85.75;;
58251;Laerm;51449;51.676;5.812;2023-05-10T10:33:36;60.76;41.27;71.45;;
58251;Laerm;51449;51.676;5.812;2023-05-10T10:36:02;63.40;39.28;75.76;;
58251;Laerm;51449;51.676;5.812;2023-05-10T10:38:25;64.20;42.97;76.53;;
58251;Laerm;51449;51.676;5.812;2023-05-10T10:41:10;62.14;44.43;75.59;;
58251;Laerm;51449;51.676;5.812;2023-05-10T10:43:48;65.17;55.47;80.21;;
58251;Laerm;51449;51.676;5.812;2023-05-10T10:46:18;64.43;43.83;74.85;;
58251;Laerm;51449;51.676;5.812;2023-05-10T10:48:50;64.15;43.67;73.18;;
58251;Laerm;51449;51.676;5.812;2023-05-10T10:51:29;61.96;41.12;80.31;;
58251;Laerm;51449;51.676;5.812;2023-05-10T10:53:53;66.15;45.18;81.16;;
58251;Laerm;51449;51.676;5.812;2023-05-10T10:56:21;63.26;48.14;73.20;;
58251;Laerm;51449;51.676;5.812;2023-05-10T10:58:49;63.31;43.36;73.64;;
58251;Laerm;51449;51.676;5.812;2023-05-10T11:01:18;64.63;44.24;74.00;;
58251;Laerm;51449;51.676;5.812;2023-05-10T11:03:40;64.54;44.55;77.80;;
58251;Laerm;51449;51.676;5.812;2023-05-10T11:06:03;62.15;39.94;75.75;;
58251;Laerm;51449;51.676;5.812;2023-05-10T11:08:30;69.53;39.00;85.33;;
58251;Laerm;51449;51.676;5.812;2023-05-10T11:11:03;69.07;41.15;85.18;;
58251;Laerm;51449;51.676;5.812;2023-05-10T11:13:44;66.49;42.07;83.72;;
58251;Laerm;51449;51.676;5.812;2023-05-10T11:16:21;61.93;39.32;75.00;;
58251;Laerm;51449;51.676;5.812;2023-05-10T11:19:07;70.71;43.46;86.76;;
58251;Laerm;51449;51.676;5.812;2023-05-10T11:21:32;74.29;46.15;87.84;;
58251;Laerm;51449;51.676;5.812;2023-05-10T11:23:58;71.30;42.21;87.34;;
58251;Laerm;51449;51.676;5.812;2023-05-10T11:26:20;66.18;44.37;85.28;;
58251;Laerm;51449;51.676;5.812;2023-05-10T11:28:46;63.93;42.16;74.90;;
58251;Laerm;51449;51.676;5.812;2023-05-10T11:31:09;63.17;41.75;73.82;;
58251;Laerm;51449;51.676;5.812;2023-05-10T11:33:53;64.20;47.50;82.18;;
58251;Laerm;51449;51.676;5.812;2023-05-10T11:36:24;63.12;37.30;76.92;;
58251;Laerm;51449;51.676;5.812;2023-05-10T11:38:48;65.54;42.96;75.01;;
58251;Laerm;51449;51.676;5.812;2023-05-10T11:41:11;66.76;42.79;77.42;;
58251;Laerm;51449;51.676;5.812;2023-05-10T11:43:33;66.06;44.14;75.62;;
58251;Laerm;51449;51.676;5.812;2023-05-10T11:45:57;65.94;40.72;76.37;;
58251;Laerm;51449;51.676;5.812;2023-05-10T11:48:19;63.15;40.02;74.00;;
58251;Laerm;51449;51.676;5.812;2023-05-10T11:50:44;66.40;41.71;79.18;;
58251;Laerm;51449;51.676;5.812;2023-05-10T11:53:06;65.27;41.62;80.62;;
58251;Laerm;51449;51.676;5.812;2023-05-10T11:55:27;61.83;43.69;73.70;;
58251;Laerm;51449;51.676;5.812;2023-05-10T11:57:53;62.15;42.82;75.77;;
58251;Laerm;51449;51.676;5.812;2023-05-10T12:00:16;62.95;42.32;73.19;;
58251;Laerm;51449;51.676;5.812;2023-05-10T12:02:39;63.92;44.23;83.57;;
58251;Laerm;51449;51.676;5.812;2023-05-10T12:05:04;67.15;49.94;81.01;;
58251;Laerm;51449;51.676;5.812;2023-05-10T12:07:27;63.03;43.61;74.64;;
58251;Laerm;51449;51.676;5.812;2023-05-10T12:10:10;66.28;41.24;86.17;;
58251;Laerm;51449;51.676;5.812;2023-05-10T12:12:42;65.28;43.34;77.40;;
58251;Laerm;51449;51.676;5.812;2023-05-10T12:15:05;67.57;43.78;80.46;;
58251;Laerm;51449;51.676;5.812;2023-05-10T12:17:32;66.44;40.68;78.18;;
58251;Laerm;51449;51.676;5.812;2023-05-10T12:19:54;71.50;42.47;86.99;;
58251;Laerm;51449;51.676;5.812;2023-05-10T12:22:20;69.96;43.97;85.58;;
58251;Laerm;51449;51.676;5.812;2023-05-10T12:24:45;63.09;40.73;72.62;;
58251;Laerm;51449;51.676;5.812;2023-05-10T12:27:10;65.60;41.43;79.37;;
58251;Laerm;51449;51.676;5.812;2023-05-10T12:29:33;64.10;46.98;77.75;;
58251;Laerm;51449;51.676;5.812;2023-05-10T12:31:58;65.02;48.13;73.47;;
58251;Laerm;51449;51.676;5.812;2023-05-10T12:34:34;63.77;43.80;73.46;;
58251;Laerm;51449;51.676;5.812;2023-05-10T12:36:58;66.23;47.21;78.75;;
58251;Laerm;51449;51.676;5.812;2023-05-10T12:39:20;65.64;44.22;76.53;;
58251;Laerm;51449;51.676;5.812;2023-05-10T12:41:42;65.23;48.50;73.74;;
58251;Laerm;51449;51.676;5.812;2023-05-10T12:44:04;64.39;40.70;75.34;;
58251;Laerm;51449;51.676;5.812;2023-05-10T12:46:26;62.48;39.98;74.69;;
58251;Laerm;51449;51.676;5.812;2023-05-10T12:48:49;66.84;38.48;81.58;;
58251;Laerm;51449;51.676;5.812;2023-05-10T12:51:30;64.07;40.44;77.34;;
58251;Laerm;51449;51.676;5.812;2023-05-10T12:53:52;67.44;46.56;79.74;;
58251;Laerm;51449;51.676;5.812;2023-05-10T12:56:14;67.26;44.55;79.42;;
58251;Laerm;51449;51.676;5.812;2023-05-10T12:58:38;63.66;39.76;75.59;;
58251;Laerm;51449;51.676;5.812;2023-05-10T13:01:00;71.10;40.45;87.98;;
58251;Laerm;51449;51.676;5.812;2023-05-10T13:03:22;69.23;43.16;87.37;;
58251;Laerm;51449;51.676;5.812;2023-05-10T13:05:44;64.16;38.05;75.77;;
58251;Laerm;51449;51.676;5.812;2023-05-10T13:08:07;64.86;40.23;76.83;;
58251;Laerm;51449;51.676;5.812;2023-05-10T13:10:30;61.51;38.43;73.70;;
58251;Laerm;51449;51.676;5.812;2023-05-10T13:12:52;71.69;43.11;101.05;;
58251;Laerm;51449;51.676;5.812;2023-05-10T13:15:14;66.34;43.73;78.25;;
58251;Laerm;51449;51.676;5.812;2023-05-10T13:17:36;61.20;41.69;70.07;;
58251;Laerm;51449;51.676;5.812;2023-05-10T13:20:00;65.19;36.84;79.31;;
58251;Laerm;51449;51.676;5.812;2023-05-10T13:22:22;68.58;42.86;84.32;;
58251;Laerm;51449;51.676;5.812;2023-05-10T13:25:00;69.97;41.63;84.87;;
58251;Laerm;51449;51.676;5.812;2023-05-10T13:27:23;65.67;45.37;84.54;;
58251;Laerm;51449;51.676;5.812;2023-05-10T13:29:45;67.87;41.07;82.79;;
58251;Laerm;51449;51.676;5.812;2023-05-10T13:32:09;66.72;45.87;82.12;;
58251;Laerm;51449;51.676;5.812;2023-05-10T13:34:31;62.57;42.44;74.38;;
58251;Laerm;51449;51.676;5.812;2023-05-10T13:36:53;65.36;50.19;77.84;;
58251;Laerm;51449;51.676;5.812;2023-05-10T13:39:17;63.55;43.48;73.80;;
58251;Laerm;51449;51.676;5.812;2023-05-10T13:41:39;64.44;43.32;79.49;;